Time,TemperatureF,DewpointF,PressureIn,WindDirection,WindDirectionDegrees,WindSpeedMPH,WindSpeedGustMPH,Humidity,HourlyPrecipIn,Conditions,Clouds,dailyrainin,SoftwareType,DateUTC
2013-02-17 00:01:00,39.0,39.0,30.33,North,0,0.0,2.0,100,0.00,,,0.07,,2013-02-17 08:01:00,
2013-02-17 00:11:00,39.0,39.0,30.33,North,0,0.0,2.0,100,0.00,,,0.07,,2013-02-17 08:11:00,
2013-02-17 00:21:00,39.0,39.0,30.33,North,0,0.0,0.0,100,0.00,,,0.07,,2013-02-17 08:21:00,
2013-02-17 00:31:00,38.0,38.0,30.34,North,0,0.0,0.0,100,0.00,,,0.07,,2013-02-17 08:31:00,
2013-02-17 00:41:00,38.0,38.0,30.34,North,0,0.0,0.0,100,0.00,,,0.07,,2013-02-17 08:41:00,
2013-02-17 00:52:00,38.0,38.0,30.34,North,0,0.0,0.0,100,0.00,,,0.07,,2013-02-17 08:52:00,
2013-02-17 01:01:00,37.0,37.0,30.34,North,0,0.0,0.0,100,0.00,,,0.07,,2013-02-17 09:01:00,
2013-02-17 01:11:00,37.0,37.0,30.34,North,0,0.0,0.0,100,0.00,,,0.07,,2013-02-17 09:11:00,
2013-02-17 01:21:00,38.0,38.0,30.35,North,0,0.0,0.0,100,0.00,,,0.07,,2013-02-17 09:21:00,
2013-02-17 01:31:00,38.0,38.0,30.34,North,0,0.0,0.0,100,0.00,,,0.07,,2013-02-17 09:31:00,
2013-02-17 01:41:00,38.0,38.0,30.34,North,0,0.0,0.0,100,0.00,,,0.07,,2013-02-17 09:41:00,
2013-02-17 01:52:00,37.0,37.0,30.34,North,0,0.0,0.0,100,0.00,,,0.07,,2013-02-17 09:52:00,
2013-02-17 02:01:00,37.0,37.0,30.34,North,0,0.0,0.0,100,0.00,,,0.07,,2013-02-17 10:01:00,
2013-02-17 02:11:00,37.0,37.0,30.35,North,0,0.0,0.0,100,0.00,,,0.07,,2013-02-17 10:11:00,
2013-02-17 02:21:00,37.0,37.0,30.35,North,0,0.0,0.0,100,0.00,,,0.07,,2013-02-17 10:21:00,
2013-02-17 02:31:00,37.0,37.0,30.36,North,0,0.0,0.0,100,0.00,,,0.07,,2013-02-17 10:31:00,
2013-02-17 02:41:00,37.0,37.0,30.36,North,0,0.0,0.0,100,0.00,,,0.07,,2013-02-17 10:41:00,
2013-02-17 02:52:00,37.0,37.0,30.35,North,0,0.0,0.0,100,0.00,,,0.07,,2013-02-17 10:52:00,
2013-02-17 03:01:00,37.0,37.0,30.35,North,0,0.0,0.0,100,0.00,,,0.07,,2013-02-17 11:01:00,
2013-02-17 03:11:00,37.0,37.0,30.35,North,0,0.0,0.0,100,0.00,,,0.07,,2013-02-17 11:11:00,
2013-02-17 03:21:00,38.0,38.0,30.35,ENE,74,1.0,3.0,100,0.00,,,0.07,,2013-02-17 11:21:00,
2013-02-17 03:32:00,39.0,39.0,30.34,North,0,0.0,3.0,100,0.00,,,0.07,,2013-02-17 11:32:00,
2013-02-17 03:41:00,39.0,39.0,30.34,North,0,0.0,3.0,100,0.00,,,0.07,,2013-02-17 11:41:00,
2013-02-17 03:52:00,39.0,39.0,30.34,North,0,0.0,0.0,100,0.00,,,0.07,,2013-02-17 11:52:00,
2013-02-17 04:02:00,39.0,39.0,30.34,North,0,0.0,0.0,100,0.00,,,0.07,,2013-02-17 12:02:00,
2013-02-17 04:11:00,39.0,39.0,30.34,North,0,0.0,0.0,100,0.00,,,0.07,,2013-02-17 12:11:00,
2013-02-17 04:22:00,39.0,39.0,30.35,NNW,338,2.0,6.0,100,0.00,,,0.07,,2013-02-17 12:22:00,
2013-02-17 04:31:00,40.0,40.0,30.34,North,0,0.0,0.0,100,0.00,,,0.07,,2013-02-17 12:31:00,
2013-02-17 04:42:00,40.0,40.0,30.34,North,0,0.0,0.0,100,0.00,,,0.07,,2013-02-17 12:42:00,
2013-02-17 04:52:00,39.0,39.0,30.34,ESE,119,2.0,4.0,100,0.01,,,0.07,,2013-02-17 12:52:00,
2013-02-17 05:01:00,39.0,39.0,30.34,SE,131,2.0,4.0,100,0.01,,,0.07,,2013-02-17 13:01:00,
2013-02-17 05:11:00,39.0,39.0,30.34,SE,131,2.0,4.0,100,0.01,,,0.07,,2013-02-17 13:11:00,
2013-02-17 05:21:00,38.0,38.0,30.33,North,0,0.0,3.0,100,0.01,,,0.07,,2013-02-17 13:21:00,
2013-02-17 05:32:00,39.0,39.0,30.34,North,0,0.0,3.0,100,0.01,,,0.07,,2013-02-17 13:32:00,
2013-02-17 05:41:00,39.0,39.0,30.34,North,0,0.0,3.0,100,0.01,,,0.07,,2013-02-17 13:41:00,
2013-02-17 05:52:00,39.0,39.0,30.35,North,0,0.0,0.0,100,0.00,,,0.07,,2013-02-17 13:52:00,
2013-02-17 06:01:00,39.0,39.0,30.35,North,0,0.0,0.0,100,0.00,,,0.07,,2013-02-17 14:01:00,
2013-02-17 06:11:00,39.0,39.0,30.35,North,0,0.0,0.0,100,0.00,,,0.07,,2013-02-17 14:11:00,
2013-02-17 06:21:00,39.0,39.0,30.34,North,0,0.0,0.0,100,0.00,,,0.07,,2013-02-17 14:21:00,
2013-02-17 06:32:00,39.0,39.0,30.33,North,0,0.0,0.0,100,0.00,,,0.07,,2013-02-17 14:32:00,
2013-02-17 06:42:00,39.0,39.0,30.33,North,0,0.0,0.0,100,0.00,,,0.07,,2013-02-17 14:42:00,
2013-02-17 06:52:00,39.0,39.0,30.33,North,0,0.0,0.0,100,0.00,,,0.07,,2013-02-17 14:52:00,
2013-02-17 07:01:00,39.0,39.0,30.33,North,0,0.0,0.0,100,0.00,,,0.07,,2013-02-17 15:01:00,
2013-02-17 07:11:00,39.0,39.0,30.33,North,0,0.0,0.0,100,0.00,,,0.07,,2013-02-17 15:11:00,
2013-02-17 07:21:00,39.0,39.0,30.33,North,0,0.0,5.0,100,0.00,,,0.07,,2013-02-17 15:21:00,
2013-02-17 07:31:00,39.0,39.0,30.33,ESE,106,4.0,6.0,100,0.00,,,0.07,,2013-02-17 15:31:00,
2013-02-17 07:41:00,39.0,39.0,30.33,ESE,106,4.0,6.0,100,0.00,,,0.07,,2013-02-17 15:41:00,
2013-02-17 07:52:00,38.0,38.0,30.33,North,0,0.0,7.0,100,0.00,,,0.07,,2013-02-17 15:52:00,
2013-02-17 08:01:00,38.0,38.0,30.33,North,0,0.0,4.0,100,0.00,,,0.07,,2013-02-17 16:01:00,
2013-02-17 08:11:00,38.0,38.0,30.33,North,0,0.0,4.0,100,0.00,,,0.07,,2013-02-17 16:11:00,
2013-02-17 08:21:00,38.0,38.0,30.33,North,0,0.0,0.0,100,0.00,,,0.07,,2013-02-17 16:21:00,
2013-02-17 08:31:00,38.0,38.0,30.34,SE,142,2.0,4.0,100,0.00,,,0.07,,2013-02-17 16:31:00,
2013-02-17 08:41:00,38.0,38.0,30.34,SE,142,2.0,4.0,100,0.00,,,0.07,,2013-02-17 16:41:00,
2013-02-17 08:52:00,39.0,39.0,30.34,North,0,0.0,4.0,100,0.00,,,0.07,,2013-02-17 16:52:00,
2013-02-17 09:02:00,41.0,41.0,30.33,SE,145,2.0,4.0,100,0.00,,,0.07,,2013-02-17 17:02:00,
2013-02-17 09:11:00,41.0,41.0,30.33,SE,145,2.0,4.0,100,0.00,,,0.07,,2013-02-17 17:11:00,
2013-02-17 09:21:00,41.0,41.0,30.34,SSE,148,4.0,5.0,100,0.00,,,0.07,,2013-02-17 17:21:00,
2013-02-17 09:31:00,43.0,43.0,30.33,North,0,0.0,5.0,100,0.00,,,0.07,,2013-02-17 17:31:00,
2013-02-17 09:41:00,43.0,43.0,30.33,North,0,0.0,5.0,100,0.00,,,0.07,,2013-02-17 17:41:00,
2013-02-17 09:52:00,45.0,45.0,30.32,North,0,0.0,0.0,100,0.00,,,0.07,,2013-02-17 17:52:00,
2013-02-17 10:01:00,45.0,45.0,30.32,SSE,161,3.0,5.0,100,0.00,,,0.07,,2013-02-17 18:01:00,
2013-02-17 10:11:00,45.0,45.0,30.32,SSE,161,3.0,5.0,100,0.00,,,0.07,,2013-02-17 18:11:00,
2013-02-17 10:21:00,48.0,48.0,30.32,SE,145,1.0,3.0,100,0.00,,,0.07,,2013-02-17 18:21:00,
2013-02-17 10:32:00,49.0,46.0,30.32,NW,326,5.0,5.0,90,0.00,,,0.06,,2013-02-17 18:32:00,
2013-02-17 10:41:00,49.0,46.0,30.32,NW,326,5.0,5.0,90,0.00,,,0.06,,2013-02-17 18:41:00,
2013-02-17 10:52:00,46.0,43.0,30.31,NNE,12,4.0,6.0,88,0.00,,,0.06,,2013-02-17 18:52:00,
2013-02-17 11:01:00,45.0,42.0,30.31,North,1,2.0,6.0,90,0.00,,,0.06,,2013-02-17 19:01:00,
2013-02-17 11:11:00,45.0,42.0,30.31,North,1,2.0,6.0,90,0.00,,,0.06,,2013-02-17 19:11:00,
2013-02-17 11:21:00,46.0,43.0,30.31,West,273,3.0,6.0,89,0.00,,,0.06,,2013-02-17 19:21:00,
2013-02-17 11:32:00,46.0,42.0,30.32,NNW,327,1.0,3.0,86,0.00,,,0.05,,2013-02-17 19:32:00,
2013-02-17 11:41:00,46.0,42.0,30.32,NNW,327,1.0,3.0,86,0.00,,,0.05,,2013-02-17 19:41:00,
2013-02-17 11:52:00,47.0,42.0,30.31,North,0,0.0,5.0,83,0.00,,,0.05,,2013-02-17 19:52:00,
2013-02-17 12:01:00,47.0,41.0,30.31,North,0,0.0,0.0,80,0.00,,,0.05,,2013-02-17 20:01:00,
2013-02-17 12:11:00,47.0,41.0,30.31,North,0,0.0,0.0,80,0.00,,,0.05,,2013-02-17 20:11:00,
2013-02-17 12:21:00,47.0,41.0,30.31,NW,313,2.0,4.0,80,0.00,,,0.05,,2013-02-17 20:21:00,
2013-02-17 12:31:00,49.0,43.0,30.30,WNW,301,6.0,6.0,79,0.00,,,0.05,,2013-02-17 20:31:00,
2013-02-17 12:42:00,49.0,43.0,30.30,WNW,301,6.0,6.0,79,0.00,,,0.05,,2013-02-17 20:42:00,
2013-02-17 12:52:00,48.0,41.0,30.29,WNW,287,4.0,5.0,76,0.00,,,0.05,,2013-02-17 20:52:00,
2013-02-17 13:01:00,48.0,40.0,30.29,North,0,0.0,6.0,75,0.00,,,0.05,,2013-02-17 21:01:00,
2013-02-17 13:11:00,48.0,40.0,30.29,North,0,0.0,6.0,75,0.00,,,0.05,,2013-02-17 21:11:00,
2013-02-17 13:21:00,48.0,40.0,30.29,WNW,294,1.0,6.0,73,0.00,,,0.05,,2013-02-17 21:21:00,
2013-02-17 13:31:00,48.0,40.0,30.28,North,0,0.0,5.0,73,0.00,,,0.05,,2013-02-17 21:31:00,
2013-02-17 13:41:00,48.0,40.0,30.28,North,0,0.0,5.0,73,0.00,,,0.05,,2013-02-17 21:41:00,
2013-02-17 13:52:00,48.0,40.0,30.27,North,0,0.0,6.0,74,0.00,,,0.05,,2013-02-17 21:52:00,
2013-02-17 14:01:00,49.0,41.0,30.27,NW,312,2.0,7.0,73,0.00,,,0.05,,2013-02-17 22:01:00,
2013-02-17 14:11:00,49.0,41.0,30.27,NW,312,2.0,7.0,73,0.00,,,0.05,,2013-02-17 22:11:00,
2013-02-17 14:21:00,49.0,40.0,30.27,West,271,3.0,7.0,72,0.00,,,0.05,,2013-02-17 22:21:00,
2013-02-17 14:32:00,49.0,40.0,30.26,NW,322,2.0,8.0,71,0.00,,,0.05,,2013-02-17 22:32:00,
2013-02-17 14:41:00,49.0,40.0,30.26,NW,322,2.0,8.0,71,0.00,,,0.05,,2013-02-17 22:41:00,
2013-02-17 14:52:00,48.0,39.0,30.26,NW,326,4.0,5.0,71,0.00,,,0.05,,2013-02-17 22:52:00,
2013-02-17 15:01:00,48.0,40.0,30.25,NW,326,4.0,7.0,73,0.00,,,0.05,,2013-02-17 23:01:00,
2013-02-17 15:11:00,48.0,40.0,30.25,NW,326,4.0,7.0,73,0.00,,,0.05,,2013-02-17 23:11:00,
2013-02-17 15:21:00,47.0,39.0,30.25,NNW,336,6.0,7.0,75,0.00,,,0.05,,2013-02-17 23:21:00,
2013-02-17 15:31:00,47.0,40.0,30.24,NW,323,3.0,7.0,76,0.00,,,0.05,,2013-02-17 23:31:00,
2013-02-17 15:41:00,47.0,40.0,30.24,NW,323,3.0,7.0,76,0.00,,,0.05,,2013-02-17 23:41:00,
2013-02-17 15:52:00,47.0,40.0,30.24,North,4,3.0,8.0,77,0.00,,,0.05,,2013-02-17 23:52:00,
2013-02-17 16:01:00,47.0,40.0,30.24,NW,316,4.0,7.0,77,0.00,,,0.05,,2013-02-18 00:01:00,
2013-02-17 16:11:00,47.0,40.0,30.24,NW,316,4.0,7.0,77,0.00,,,0.05,,2013-02-18 00:11:00,
2013-02-17 16:22:00,46.0,39.0,30.24,North,0,0.0,7.0,76,0.00,,,0.05,,2013-02-18 00:22:00,
2013-02-17 16:31:00,46.0,40.0,30.23,NE,56,5.0,6.0,78,0.00,,,0.05,,2013-02-18 00:31:00,
2013-02-17 16:41:00,46.0,40.0,30.23,NE,56,5.0,6.0,78,0.00,,,0.05,,2013-02-18 00:41:00,
2013-02-17 16:52:00,45.0,39.0,30.22,North,0,0.0,0.0,79,0.00,,,0.05,,2013-02-18 00:52:00,
2013-02-17 17:01:00,45.0,39.0,30.22,NE,53,4.0,5.0,80,0.00,,,0.05,,2013-02-18 01:01:00,
2013-02-17 17:11:00,45.0,39.0,30.22,NE,53,4.0,5.0,80,0.00,,,0.05,,2013-02-18 01:11:00,
2013-02-17 17:21:00,44.0,39.0,30.21,NE,53,2.0,4.0,82,0.00,,,0.05,,2013-02-18 01:21:00,
2013-02-17 17:31:00,44.0,39.0,30.21,North,0,0.0,5.0,83,0.00,,,0.05,,2013-02-18 01:31:00,
2013-02-17 17:41:00,44.0,39.0,30.21,North,0,0.0,5.0,83,0.00,,,0.05,,2013-02-18 01:41:00,
2013-02-17 17:51:00,44.0,39.0,30.21,North,0,0.0,0.0,84,0.00,,,0.05,,2013-02-18 01:51:00,
2013-02-17 18:01:00,43.0,39.0,30.21,North,0,0.0,0.0,85,0.00,,,0.05,,2013-02-18 02:01:00,
2013-02-17 18:11:00,43.0,39.0,30.21,North,0,0.0,0.0,85,0.00,,,0.05,,2013-02-18 02:11:00,
2013-02-17 18:21:00,42.0,38.0,30.21,North,0,0.0,3.0,87,0.00,,,0.05,,2013-02-18 02:21:00,
2013-02-17 18:31:00,42.0,39.0,30.20,North,0,0.0,0.0,88,0.00,,,0.05,,2013-02-18 02:31:00,
2013-02-17 18:41:00,42.0,39.0,30.20,North,0,0.0,0.0,88,0.00,,,0.05,,2013-02-18 02:41:00,
2013-02-17 18:52:00,41.0,38.0,30.20,North,0,0.0,0.0,89,0.00,,,0.05,,2013-02-18 02:52:00,
2013-02-17 19:01:00,40.0,38.0,30.19,North,0,0.0,0.0,91,0.00,,,0.05,,2013-02-18 03:01:00,
2013-02-17 19:11:00,40.0,38.0,30.19,North,0,0.0,0.0,91,0.00,,,0.05,,2013-02-18 03:11:00,
2013-02-17 19:21:00,40.0,38.0,30.20,North,0,0.0,0.0,92,0.00,,,0.05,,2013-02-18 03:21:00,
2013-02-17 19:31:00,40.0,38.0,30.20,North,0,0.0,0.0,93,0.00,,,0.02,,2013-02-18 03:31:00,
2013-02-17 19:41:00,40.0,38.0,30.20,North,0,0.0,0.0,93,0.00,,,0.02,,2013-02-18 03:41:00,
2013-02-17 19:52:00,40.0,38.0,30.20,North,0,0.0,0.0,94,0.00,,,0.02,,2013-02-18 03:52:00,
2013-02-17 20:01:00,39.0,37.0,30.19,North,0,0.0,0.0,94,0.00,,,0.02,,2013-02-18 04:01:00,
2013-02-17 20:11:00,39.0,37.0,30.19,North,0,0.0,0.0,94,0.00,,,0.02,,2013-02-18 04:11:00,
2013-02-17 20:21:00,39.0,38.0,30.19,North,0,0.0,0.0,95,0.00,,,0.02,,2013-02-18 04:21:00,
2013-02-17 20:32:00,39.0,38.0,30.19,North,0,0.0,0.0,95,0.00,,,0.02,,2013-02-18 04:32:00,
2013-02-17 20:41:00,39.0,38.0,30.19,North,0,0.0,0.0,95,0.00,,,0.02,,2013-02-18 04:41:00,
2013-02-17 20:52:00,39.0,38.0,30.19,North,0,0.0,0.0,96,0.00,,,0.02,,2013-02-18 04:52:00,
2013-02-17 21:01:00,39.0,38.0,30.19,North,0,0.0,0.0,97,0.00,,,0.02,,2013-02-18 05:01:00,
2013-02-17 21:11:00,39.0,38.0,30.19,North,0,0.0,0.0,97,0.00,,,0.02,,2013-02-18 05:11:00,
2013-02-17 21:21:00,39.0,38.0,30.18,North,0,0.0,0.0,97,0.00,,,0.02,,2013-02-18 05:21:00,
2013-02-17 21:31:00,39.0,38.0,30.17,North,0,0.0,0.0,98,0.00,,,0.02,,2013-02-18 05:31:00,
2013-02-17 21:41:00,39.0,38.0,30.17,North,0,0.0,0.0,98,0.00,,,0.02,,2013-02-18 05:41:00,
2013-02-17 21:52:00,39.0,38.0,30.18,North,0,0.0,0.0,98,0.00,,,0.02,,2013-02-18 05:52:00,
2013-02-17 22:01:00,39.0,38.0,30.17,North,0,0.0,0.0,98,0.00,,,0.02,,2013-02-18 06:01:00,
2013-02-17 22:11:00,39.0,38.0,30.17,North,0,0.0,0.0,98,0.00,,,0.02,,2013-02-18 06:11:00,
2013-02-17 22:21:00,39.0,38.0,30.16,North,0,0.0,0.0,98,0.00,,,0.02,,2013-02-18 06:21:00,
2013-02-17 22:31:00,39.0,39.0,30.16,North,0,0.0,0.0,99,0.00,,,0.01,,2013-02-18 06:31:00,
2013-02-17 22:41:00,38.0,38.0,30.16,North,0,0.0,0.0,99,0.00,,,0.01,,2013-02-18 06:41:00,
2013-02-17 22:51:00,38.0,38.0,30.16,North,0,0.0,0.0,99,0.00,,,0.01,,2013-02-18 06:51:00,
2013-02-17 23:01:00,37.0,37.0,30.15,North,0,0.0,0.0,99,0.00,,,0.01,,2013-02-18 07:01:00,
2013-02-17 23:11:00,37.0,37.0,30.15,North,0,0.0,0.0,99,0.00,,,0.01,,2013-02-18 07:11:00,
2013-02-17 23:21:00,37.0,37.0,30.15,North,0,0.0,0.0,99,0.00,,,0.01,,2013-02-18 07:21:00,
2013-02-17 23:31:00,37.0,37.0,30.14,North,0,0.0,0.0,100,0.00,,,0.01,,2013-02-18 07:31:00,
2013-02-17 23:42:00,37.0,37.0,30.14,North,0,0.0,0.0,100,0.00,,,0.01,,2013-02-18 07:42:00,
2013-02-17 23:51:00,36.0,36.0,30.14,North,0,0.0,0.0,100,0.00,,,0.01,,2013-02-18 07:51:00,